createdAt,value
2022-08-11T00:01:49.134Z,100132.69
2022-08-11T00:02:52.789Z,100136.26
2022-08-11T00:03:57.147Z,100138.11
2022-08-11T00:05:12.027Z,100131.75
2022-08-11T00:06:15.692Z,100126.36
2022-08-11T00:07:18.010Z,100138.82
2022-08-11T00:08:26.458Z,100130.74
2022-08-11T00:09:39.746Z,100138.11
2022-08-11T00:10:39.265Z,100138.37
2022-08-11T00:11:48.078Z,100130.51
2022-08-11T00:12:58.532Z,100135.05
2022-08-11T00:14:02.222Z,100129.80
2022-08-11T00:15:07.585Z,100128.92
2022-08-11T00:16:20.157Z,100126.22
2022-08-11T00:17:22.507Z,100125.25
2022-08-11T00:18:25.341Z,100122.43
2022-08-11T00:20:14.733Z,100113.38
2022-08-11T00:20:36.116Z,100109.70
2022-08-11T00:22:04.029Z,100110.55
2022-08-11T00:22:46.006Z,100109.70
2022-08-11T00:23:59.933Z,100109.58
2022-08-11T00:26:24.957Z,100108.57
2022-08-11T00:27:34.754Z,100103.22
2022-08-11T00:28:38.510Z,100097.95
2022-08-11T00:29:51.681Z,100105.16
2022-08-11T00:30:46.267Z,100101.63
2022-08-11T00:33:02.466Z,100091.08
2022-08-11T00:34:10.139Z,100092.92
2022-08-11T00:35:53.803Z,100091.95
2022-08-11T00:36:25.341Z,100086.44
2022-08-11T00:37:24.728Z,100090.98
2022-08-11T00:39:50.858Z,100081.05
2022-08-11T00:41:17.457Z,100081.89
2022-08-11T00:42:48.387Z,100086.44
2022-08-11T00:43:59.419Z,100087.41
2022-08-11T00:45:05.724Z,100087.41
2022-08-11T00:46:27.716Z,100085.72
2022-08-11T00:47:37.350Z,100088.52
2022-08-11T00:49:18.743Z,100095.03
2022-08-11T00:50:43.322Z,100095.03
2022-08-11T00:52:14.369Z,100101.27
2022-08-11T00:53:41.910Z,100094.29
2022-08-11T00:54:57.997Z,100103.34
2022-08-11T00:58:08.515Z,100110.68
2022-08-11T00:59:36.031Z,100111.55
2022-08-11T01:00:59.003Z,100113.53
2022-08-11T01:02:16.993Z,100114.38
2022-08-11T01:03:35.222Z,100106.39
2022-08-11T01:06:58.286Z,100104.58
2022-08-11T01:08:24.163Z,100109.96
2022-08-11T01:09:51.622Z,100105.45
2022-08-11T01:10:57.801Z,100108.23
2022-08-11T01:12:27.985Z,100103.70
2022-08-11T01:15:30.215Z,100099.55
2022-08-11T01:16:51.412Z,100112.88
2022-08-11T01:18:18.537Z,100110.18
2022-08-11T01:20:45.212Z,100111.06
2022-08-11T01:20:51.730Z,100108.37
2022-08-11T01:25:57.930Z,100104.67
2022-08-11T01:27:40.198Z,100108.23
2022-08-11T01:29:04.370Z,100108.23
2022-08-11T01:30:30.864Z,100103.70
2022-08-11T01:31:57.177Z,100094.77
2022-08-11T01:35:29.501Z,100089.39
2022-08-11T01:36:56.706Z,100098.44
2022-08-11T01:38:03.236Z,100092.20
2022-08-11T01:39:24.288Z,100090.62
2022-08-11T01:42:18.071Z,100080.95
2022-08-11T01:45:07.441Z,100084.48
2022-08-11T01:50:08.887Z,100071.77
2022-08-11T01:50:58.279Z,100068.06
2022-08-11T01:52:30.260Z,100066.38
2022-08-11T01:54:06.070Z,100066.38
2022-08-11T01:55:18.885Z,100065.63
2022-08-11T01:58:22.282Z,100066.73
2022-08-11T01:59:34.933Z,100064.17
2022-08-11T02:00:56.482Z,100064.17
2022-08-11T02:02:02.961Z,100058.78
2022-08-11T02:03:18.083Z,100061.48
2022-08-11T02:04:27.242Z,100059.53
2022-08-11T02:05:40.864Z,100067.48
2022-08-11T02:07:08.802Z,100063.95
2022-08-11T02:10:03.890Z,100063.82
2022-08-11T02:11:12.822Z,100066.38
2022-08-11T02:12:17.982Z,100069.91
2022-08-11T02:13:40.907Z,100073.45
2022-08-11T02:15:15.437Z,100070.66
2022-08-11T02:18:24.201Z,100075.17
2022-08-11T02:19:53.143Z,100078.74
2022-08-11T02:20:58.367Z,100085.95
2022-08-11T02:22:05.433Z,100084.23
2022-08-11T02:24:03.696Z,100084.23
2022-08-11T02:26:08.677Z,100084.27
2022-08-11T02:27:17.769Z,100082.28
2022-08-11T02:29:45.362Z,100066.25
2022-08-11T02:30:55.522Z,100074.20
2022-08-11T02:33:54.355Z,100055.13
2022-08-11T02:35:26.287Z,100076.67
2022-08-11T02:36:56.325Z,100065.89
2022-08-11T02:38:26.816Z,100066.77
2022-08-11T02:41:10.214Z,100058.17
2022-08-11T02:42:36.125Z,100054.50
2022-08-11T02:43:42.288Z,100064.53
2022-08-11T02:45:14.555Z,100062.69
2022-08-11T02:46:30.594Z,100066.38
2022-08-11T02:49:43.153Z,100067.36
2022-08-11T02:51:09.888Z,100061.97
2022-08-11T02:52:17.010Z,100061.13
2022-08-11T02:53:32.721Z,100062.94
2022-08-11T02:55:46.013Z,100058.43
2022-08-11T02:56:47.454Z,100054.73
2022-08-11T02:57:56.235Z,100049.47
2022-08-11T02:59:17.426Z,100054.02
2022-08-11T03:00:22.247Z,100060.38
2022-08-11T03:02:59.200Z,100059.53
2022-08-11T03:04:08.121Z,100057.55
2022-08-11T03:06:50.328Z,100060.15
2022-08-11T03:08:26.342Z,100061.84
2022-08-11T03:09:41.695Z,100063.69
2022-08-11T03:10:57.970Z,100066.25
2022-08-11T03:12:13.058Z,100064.40
2022-08-11T03:13:30.178Z,100069.91
2022-08-11T03:16:34.289Z,100071.02
2022-08-11T03:17:39.582Z,100067.48
2022-08-11T03:23:19.763Z,100067.13
2022-08-11T03:24:20.408Z,100057.45
2022-08-11T03:25:35.372Z,100052.94
2022-08-11T03:26:58.817Z,100057.33
2022-08-11T03:28:10.723Z,100067.13
2022-08-11T03:29:28.327Z,100056.22
2022-08-11T03:30:43.998Z,100062.58
2022-08-11T03:31:53.276Z,100064.42
2022-08-11T03:34:22.347Z,100056.58
2022-08-11T03:35:25.005Z,100053.04
2022-08-11T03:37:16.225Z,100055.73
2022-08-11T03:38:02.230Z,100052.20
2022-08-11T03:39:14.522Z,100060.14
2022-08-11T03:40:25.225Z,100064.42
2022-08-11T03:42:03.887Z,100056.34
2022-08-11T03:43:02.324Z,100059.80
2022-08-11T03:44:37.821Z,100052.81
2022-08-11T03:46:02.383Z,100050.13
2022-08-11T03:47:25.888Z,100067.87
2022-08-11T03:48:43.949Z,100065.89
2022-08-11T03:50:01.949Z,100074.81
2022-08-11T03:52:49.874Z,100059.66
2022-08-11T03:54:14.265Z,100059.66
2022-08-11T03:55:41.095Z,100057.20
2022-08-11T03:56:56.937Z,100068.71
2022-08-11T03:58:21.461Z,100071.41
2022-08-11T03:59:43.385Z,100066.73
2022-08-11T04:01:02.337Z,100062.23
2022-08-11T04:02:31.222Z,100064.79
2022-08-11T04:03:55.501Z,100058.43
2022-08-11T04:05:18.331Z,100064.04
2022-08-11T04:06:37.793Z,100066.86
2022-08-11T04:07:55.761Z,100066.73
2022-08-11T04:09:19.384Z,100067.73
2022-08-11T04:10:49.089Z,100063.07
2022-08-11T04:12:06.822Z,100059.53
2022-08-11T04:13:19.209Z,100058.66
2022-08-11T04:14:25.464Z,100064.04
2022-08-11T04:15:52.908Z,100063.20
2022-08-11T04:17:25.275Z,100067.87
2022-08-11T04:18:51.493Z,100055.38
2022-08-11T04:20:31.351Z,100051.09
2022-08-11T04:22:03.413Z,100047.66
2022-08-11T04:24:35.058Z,100053.91
2022-08-11T04:25:10.820Z,100057.58
2022-08-11T04:26:35.073Z,100054.05
2022-08-11T04:27:54.223Z,100054.17
2022-08-11T04:29:36.162Z,100052.45
2022-08-11T04:31:49.587Z,100056.12
2022-08-11T04:32:28.663Z,100063.61
2022-08-11T04:33:57.074Z,100065.16
2022-08-11T04:35:12.903Z,100060.78
2022-08-11T04:36:25.406Z,100044.77
2022-08-11T04:39:13.019Z,100034.09
2022-08-11T04:42:08.120Z,100024.17
2022-08-11T04:46:40.718Z,100019.63
2022-08-11T04:48:04.840Z,100022.22
2022-08-11T04:49:45.746Z,100015.15
2022-08-11T04:51:08.988Z,100015.15
2022-08-11T04:52:23.156Z,100016.97
2022-08-11T04:53:46.011Z,100018.81
2022-08-11T04:56:16.181Z,100019.27
2022-08-11T04:57:45.212Z,100010.22
2022-08-11T05:00:05.211Z,100009.95
2022-08-11T05:01:21.436Z,100014.24
2022-08-11T05:02:48.818Z,100019.63
2022-08-11T05:04:29.938Z,100019.05
2022-08-11T05:05:56.563Z,100029.94
2022-08-11T05:07:28.377Z,100037.02
2022-08-11T05:08:54.250Z,100038.99
2022-08-11T05:10:22.768Z,100036.17
2022-08-11T05:12:03.960Z,100035.33
2022-08-11T05:13:06.300Z,100041.55
2022-08-11T05:14:15.725Z,100047.78
2022-08-11T05:15:20.923Z,100045.97
2022-08-11T05:17:59.920Z,100047.04
2022-08-11T05:19:05.728Z,100051.48
2022-08-11T05:20:10.729Z,100073.02
2022-08-11T05:21:13.410Z,100058.55
2022-08-11T05:22:17.525Z,100062.84
2022-08-11T05:23:19.780Z,100057.33
2022-08-11T05:24:23.886Z,100057.45
2022-08-11T05:26:44.377Z,100053.78
2022-08-11T05:28:04.763Z,100056.19
2022-08-11T05:30:38.209Z,100043.50
2022-08-11T05:31:44.154Z,100044.22
2022-08-11T05:32:49.333Z,100050.48
2022-08-11T05:33:54.798Z,100050.48
2022-08-11T05:34:58.308Z,100048.63
2022-08-11T05:36:12.496Z,100052.04
2022-08-11T05:37:26.605Z,100069.91
2022-08-11T05:38:24.802Z,100067.09
2022-08-11T05:39:36.209Z,100074.33
2022-08-11T05:40:33.270Z,100078.97
2022-08-11T05:41:35.747Z,100077.99
2022-08-11T05:42:41.702Z,100080.69
2022-08-11T05:44:20.925Z,100083.25
2022-08-11T05:44:49.619Z,100080.56
2022-08-11T05:46:06.229Z,100073.36
2022-08-11T05:47:08.098Z,100071.53
2022-08-11T05:48:10.579Z,100074.35
2022-08-11T05:49:13.607Z,100077.31
2022-08-11T05:50:18.335Z,100064.28
2022-08-11T05:51:30.528Z,100071.75
2022-08-11T05:52:31.968Z,100072.57
2022-08-11T05:53:33.186Z,100065.96
2022-08-11T05:54:37.388Z,100074.36
2022-08-11T05:56:56.511Z,100076.05
2022-08-11T05:58:04.966Z,100088.78
2022-08-11T05:59:12.729Z,100087.30
2022-08-11T06:00:16.974Z,100093.15
2022-08-11T06:01:27.353Z,100091.02
2022-08-11T06:02:31.720Z,100087.73
2022-08-11T06:03:34.799Z,100085.72
2022-08-11T06:04:39.615Z,100088.95
2022-08-11T06:05:43.879Z,100081.07
2022-08-11T06:06:55.372Z,100083.45
2022-08-11T06:07:57.674Z,100082.38
2022-08-11T06:08:59.830Z,100087.86
2022-08-11T06:10:02.669Z,100084.53
2022-08-11T06:11:05.567Z,100076.91
2022-08-11T06:12:10.642Z,100080.67
2022-08-11T06:13:16.335Z,100085.39
2022-08-11T06:14:19.954Z,100089.91
2022-08-11T06:15:23.100Z,100087.98
2022-08-11T06:16:26.087Z,100087.23
2022-08-11T06:17:38.533Z,100095.51
2022-08-11T06:18:34.212Z,100090.02
2022-08-11T06:19:42.315Z,100086.27
2022-08-11T06:22:03.270Z,100089.47
2022-08-11T06:23:06.464Z,100087.30
2022-08-11T06:25:33.318Z,100096.75
2022-08-11T06:26:49.639Z,100099.14
2022-08-11T06:27:42.022Z,100105.00
2022-08-11T06:28:45.665Z,100087.70
2022-08-11T06:31:03.027Z,100118.77
2022-08-11T06:32:05.608Z,100111.91
2022-08-11T06:34:56.114Z,100134.78
2022-08-11T06:36:16.690Z,100136.83
2022-08-11T06:37:25.430Z,100139.71
2022-08-11T06:38:34.451Z,100142.89
2022-08-11T06:39:40.637Z,100128.24
2022-08-11T06:42:10.210Z,100112.08
2022-08-11T06:43:21.156Z,100109.13
2022-08-11T06:44:31.639Z,100107.91
2022-08-11T06:45:56.775Z,100103.26
2022-08-11T06:47:08.894Z,100118.06
2022-08-11T06:48:19.677Z,100116.73
2022-08-11T06:49:23.811Z,100127.15
2022-08-11T06:50:28.971Z,100119.68
2022-08-11T06:51:34.630Z,100116.75
2022-08-11T06:52:38.303Z,100120.19
2022-08-11T06:54:03.039Z,100115.41
2022-08-11T06:54:53.262Z,100116.91
2022-08-11T06:55:58.945Z,100121.20
2022-08-11T06:57:28.243Z,100117.42
2022-08-11T06:58:05.471Z,100113.63
2022-08-11T06:59:11.019Z,100111.56
2022-08-11T07:00:17.153Z,100121.20
2022-08-11T07:01:50.155Z,100112.91
2022-08-11T07:03:06.607Z,100124.41
2022-08-11T07:04:09.205Z,100128.56
2022-08-11T07:05:24.085Z,100149.00
2022-08-11T07:06:51.248Z,100151.56
2022-08-11T07:09:33.330Z,100170.06
2022-08-11T07:11:09.350Z,100180.59
2022-08-11T07:12:24.541Z,100177.77
2022-08-11T07:13:39.436Z,100176.77
2022-08-11T07:14:37.776Z,100180.21
2022-08-11T07:16:09.107Z,100176.67
2022-08-11T07:16:42.051Z,100164.91
2022-08-11T07:17:50.456Z,100152.19
2022-08-11T07:18:55.949Z,100147.53
2022-08-11T07:19:59.225Z,100141.17
2022-08-11T07:22:00.297Z,100126.61
2022-08-11T07:22:21.225Z,100123.80
2022-08-11T07:23:23.681Z,100122.95
2022-08-11T07:24:59.609Z,100122.95
2022-08-11T07:25:47.436Z,100127.70
2022-08-11T07:26:52.261Z,100113.13
2022-08-11T07:28:13.866Z,100103.95
2022-08-11T07:29:18.077Z,100092.20
2022-08-11T07:30:22.240Z,100066.87
2022-08-11T07:31:36.249Z,100072.16
2022-08-11T07:34:07.923Z,100072.97
2022-08-11T07:35:09.877Z,100069.33
2022-08-11T07:36:14.026Z,100075.56
2022-08-11T07:37:16.902Z,100068.33
2022-08-11T07:38:29.053Z,100059.27
2022-08-11T07:39:32.251Z,100060.15
2022-08-11T07:40:35.455Z,100057.45
2022-08-11T07:41:38.229Z,100065.53
2022-08-11T07:42:41.002Z,100064.79
2022-08-11T07:43:44.486Z,100076.41
2022-08-11T07:44:47.292Z,100078.13
2022-08-11T07:45:49.544Z,100076.31
2022-08-11T07:46:52.600Z,100087.18
2022-08-11T07:47:54.869Z,100092.70
2022-08-11T07:48:57.065Z,100090.88
2022-08-11T07:49:59.586Z,100095.27
2022-08-11T07:51:02.055Z,100101.40
2022-08-11T07:52:04.509Z,100105.81
2022-08-11T07:53:07.087Z,100103.83
2022-08-11T07:54:17.171Z,100106.39
2022-08-11T07:55:14.883Z,100117.04
2022-08-11T07:56:19.619Z,100116.91
2022-08-11T07:57:51.466Z,100122.20
2022-08-11T07:58:30.009Z,100113.99
2022-08-11T08:00:00.175Z,100113.99
2022-08-11T08:00:47.058Z,100114.70
2022-08-11T08:01:51.877Z,100117.27
2022-08-11T08:02:54.318Z,100123.41
2022-08-11T08:03:58.682Z,100127.79
2022-08-11T08:05:01.129Z,100138.47
2022-08-11T08:06:04.948Z,100122.30
2022-08-11T08:07:09.164Z,100119.48
2022-08-11T08:08:13.319Z,100119.48
2022-08-11T08:09:17.428Z,100119.34
2022-08-11T08:10:20.724Z,100119.22
2022-08-11T08:11:27.387Z,100122.75
2022-08-11T08:12:28.126Z,100109.28
2022-08-11T08:13:31.795Z,100115.42
2022-08-11T08:14:34.365Z,100114.55
2022-08-11T08:15:36.994Z,100116.27
2022-08-11T08:16:40.742Z,100115.29
2022-08-11T08:17:43.188Z,100106.23
2022-08-11T08:18:46.812Z,100101.69
2022-08-11T08:19:49.146Z,100110.61
2022-08-11T08:20:51.955Z,100105.22
2022-08-11T08:21:54.781Z,100099.70
2022-08-11T08:23:01.484Z,100094.31
2022-08-11T08:24:06.306Z,100106.81
2022-08-11T08:25:09.549Z,100112.20
2022-08-11T08:26:16.919Z,100107.69
2022-08-11T08:27:19.114Z,100103.14
2022-08-11T08:28:21.338Z,100101.30
2022-08-11T08:29:24.412Z,100096.78
2022-08-11T08:30:28.077Z,100099.60
2022-08-11T08:31:30.603Z,100090.52
2022-08-11T08:32:34.472Z,100094.92
2022-08-11T08:33:37.156Z,100096.78
2022-08-11T08:34:40.114Z,100099.34
2022-08-11T08:35:54.505Z,100093.95
2022-08-11T08:36:49.712Z,100098.47
2022-08-11T08:37:53.148Z,100094.80
2022-08-11T08:38:55.509Z,100094.80
2022-08-11T08:39:57.954Z,100092.98
2022-08-11T08:41:00.457Z,100089.41
2022-08-11T08:42:11.306Z,100095.67
2022-08-11T08:43:15.414Z,100086.58
2022-08-11T08:44:37.908Z,100090.15
2022-08-11T08:45:23.702Z,100097.22
2022-08-11T08:46:29.928Z,100089.14
2022-08-11T08:48:50.442Z,100074.77
2022-08-11T08:51:13.248Z,100090.09
2022-08-11T08:52:31.767Z,100103.49
2022-08-11T08:53:26.345Z,100090.15
2022-08-11T08:55:45.568Z,100088.98
2022-08-11T08:56:49.532Z,100087.19
2022-08-11T08:57:52.069Z,100079.59
2022-08-11T08:58:54.462Z,100085.03
2022-08-11T08:59:56.882Z,100086.44
2022-08-11T09:00:59.675Z,100089.39
2022-08-11T09:02:04.166Z,100090.25
2022-08-11T09:03:36.085Z,100084.14
2022-08-11T09:04:12.845Z,100088.06
2022-08-11T09:05:18.161Z,100083.91
2022-08-11T09:06:21.383Z,100082.28
2022-08-11T09:07:24.386Z,100081.42
2022-08-11T09:08:27.712Z,100084.83
2022-08-11T09:09:30.234Z,100076.49
2022-08-11T09:10:32.966Z,100079.67
2022-08-11T09:11:36.800Z,100079.16
2022-08-11T09:12:40.048Z,100082.30
2022-08-11T09:13:42.538Z,100076.78
2022-08-11T09:14:47.517Z,100088.98
2022-08-11T09:15:56.163Z,100084.16
2022-08-11T09:16:57.225Z,100078.27
2022-08-11T09:18:00.783Z,100077.63
2022-08-11T09:19:03.150Z,100074.46
2022-08-11T09:20:08.306Z,100076.51
2022-08-11T09:22:25.992Z,100070.17
2022-08-11T09:24:34.054Z,100071.32
2022-08-11T09:25:37.640Z,100081.19
2022-08-11T09:26:40.259Z,100073.25
2022-08-11T09:27:50.399Z,100067.76
2022-08-11T09:28:47.152Z,100077.78
2022-08-11T09:29:49.654Z,100075.33
2022-08-11T09:30:52.389Z,100083.50
2022-08-11T09:31:54.567Z,100074.56
2022-08-11T09:33:01.328Z,100074.68
2022-08-11T09:34:05.277Z,100082.01
2022-08-11T09:35:08.689Z,100069.55
2022-08-11T09:36:12.541Z,100073.95
2022-08-11T09:37:19.569Z,100070.39
2022-08-11T09:38:20.904Z,100070.39
2022-08-11T09:39:24.023Z,100085.54
2022-08-11T09:40:27.676Z,100080.89
2022-08-11T09:42:01.068Z,100088.52
2022-08-11T09:42:36.284Z,100090.97
2022-08-11T09:43:41.807Z,100082.80
2022-08-11T09:44:44.122Z,100083.67
2022-08-11T09:45:48.524Z,100087.20
2022-08-11T09:46:52.080Z,100089.13
2022-08-11T09:47:55.619Z,100087.55
2022-08-11T09:48:58.957Z,100076.90
2022-08-11T09:50:02.958Z,100081.42
2022-08-11T09:51:06.869Z,100079.94
2022-08-11T09:52:10.343Z,100077.37
2022-08-11T09:53:36.573Z,100080.89
2022-08-11T09:54:18.038Z,100074.68
2022-08-11T09:55:20.504Z,100077.48
2022-08-11T09:56:24.512Z,100090.06
2022-08-11T09:57:26.868Z,100093.59
2022-08-11T09:58:42.288Z,100089.83
2022-08-11T09:59:33.935Z,100087.99
2022-08-11T10:00:36.982Z,100077.60
2022-08-11T10:01:42.821Z,100077.60
2022-08-11T10:02:46.977Z,100079.82
2022-08-11T10:03:49.329Z,100072.84
2022-08-11T10:04:51.460Z,100077.37
2022-08-11T10:05:59.184Z,100079.20
2022-08-11T10:07:04.461Z,100081.89
2022-08-11T10:08:09.837Z,100072.00
2022-08-11T10:09:15.000Z,100076.29
2022-08-11T10:10:19.682Z,100084.11
2022-08-11T10:11:22.677Z,100083.14
2022-08-11T10:12:34.039Z,100088.52
2022-08-11T10:14:10.550Z,100082.91
2022-08-11T10:14:45.065Z,100085.48
2022-08-11T10:16:03.632Z,100081.48
2022-08-11T10:16:53.067Z,100080.52
2022-08-11T10:17:58.461Z,100078.67
2022-08-11T10:19:01.555Z,100078.80
2022-08-11T10:20:06.272Z,100070.85
2022-08-11T10:21:18.099Z,100068.41
2022-08-11T10:22:20.693Z,100078.30
2022-08-11T10:23:24.881Z,100083.55
2022-08-11T10:24:28.830Z,100081.59
2022-08-11T10:25:31.175Z,100079.44
2022-08-11T10:26:34.149Z,100081.23
2022-08-11T10:28:28.188Z,100078.55
2022-08-11T10:29:09.632Z,100072.34
2022-08-11T10:29:49.574Z,100081.36
2022-08-11T10:30:52.982Z,100068.05
2022-08-11T10:31:59.453Z,100079.67
2022-08-11T10:33:03.645Z,100073.30
2022-08-11T10:34:08.044Z,100075.02
2022-08-11T10:35:12.586Z,100075.87
2022-08-11T10:36:17.919Z,100070.50
2022-08-11T10:37:22.532Z,100072.22
2022-08-11T10:38:26.835Z,100071.25
2022-08-11T10:39:29.265Z,100073.09
2022-08-11T10:40:33.137Z,100073.18
2022-08-11T10:42:07.373Z,100070.50
2022-08-11T10:42:58.413Z,100071.25
2022-08-11T10:44:04.144Z,100071.02
2022-08-11T10:45:07.655Z,100070.05
2022-08-11T10:46:12.544Z,100058.34
2022-08-11T10:47:16.070Z,100063.59
2022-08-11T10:48:18.383Z,100065.41
2022-08-11T10:49:21.009Z,100068.20
2022-08-11T10:50:23.639Z,100065.77
2022-08-11T10:51:50.075Z,100066.73
2022-08-11T10:52:31.233Z,100069.20
2022-08-11T10:54:48.979Z,100072.42
2022-08-11T10:55:51.793Z,100070.57
2022-08-11T10:56:54.958Z,100072.14
2022-08-11T10:58:04.361Z,100072.14
2022-08-11T10:59:04.102Z,100075.70
2022-08-11T11:00:10.627Z,100070.45
2022-08-11T11:01:14.735Z,100060.55
2022-08-11T11:02:17.435Z,100062.16
2022-08-11T11:03:23.193Z,100066.44
2022-08-11T11:04:38.325Z,100068.16
2022-08-11T11:06:27.745Z,100061.06
2022-08-11T11:07:01.437Z,100062.16
2022-08-11T11:08:12.083Z,100063.87
2022-08-11T11:09:17.991Z,100063.63
2022-08-11T11:10:23.262Z,100067.05
2022-08-11T11:11:26.853Z,100066.08
2022-08-11T11:12:44.086Z,100064.06
2022-08-11T11:13:55.160Z,100063.82
2022-08-11T11:14:58.762Z,100059.08
2022-08-11T11:15:59.362Z,100059.80
2022-08-11T11:17:04.731Z,100062.25
2022-08-11T11:18:20.052Z,100063.85
2022-08-11T11:19:22.694Z,100062.77
2022-08-11T11:21:39.533Z,100067.91
2022-08-11T11:22:44.966Z,100067.89
2022-08-11T11:24:10.975Z,100061.55
2022-08-11T11:26:58.719Z,100066.58
2022-08-11T11:29:53.278Z,100056.70
2022-08-11T11:31:34.337Z,100055.69
2022-08-11T11:32:52.122Z,100058.50
2022-08-11T11:34:07.162Z,100053.87
2022-08-11T11:35:09.293Z,100059.25
2022-08-11T11:37:39.091Z,100051.45
2022-08-11T11:38:42.492Z,100062.19
2022-08-11T11:39:45.256Z,100060.47
2022-08-11T11:40:48.105Z,100061.55
2022-08-11T11:41:53.376Z,100049.32
2022-08-11T11:42:58.614Z,100063.61
2022-08-11T11:44:01.484Z,100055.42
2022-08-11T11:45:06.146Z,100050.92
2022-08-11T11:46:09.476Z,100060.70
2022-08-11T11:47:11.939Z,100050.80
2022-08-11T11:48:14.201Z,100050.67
2022-08-11T11:49:17.595Z,100049.83
2022-08-11T11:50:34.230Z,100049.95
2022-08-11T11:51:37.986Z,100058.02
2022-08-11T11:52:40.535Z,100056.30
2022-08-11T11:53:43.324Z,100054.45
2022-08-11T11:55:59.275Z,100060.23
2022-08-11T11:57:02.240Z,100056.44
2022-08-11T11:58:04.829Z,100062.41
2022-08-11T11:59:07.893Z,100064.02
2022-08-11T12:00:13.775Z,100057.42
2022-08-11T12:01:16.340Z,100053.77
2022-08-11T12:02:19.520Z,100060.87
2022-08-11T12:03:23.050Z,100056.20
2022-08-11T12:04:26.691Z,100057.80
2022-08-11T12:05:29.477Z,100053.18
2022-08-11T12:06:33.671Z,100043.14
2022-08-11T12:07:39.975Z,100055.50
2022-08-11T12:08:43.833Z,100054.62
2022-08-11T12:09:46.322Z,100050.12
2022-08-11T12:10:53.813Z,100035.57
2022-08-11T12:11:56.347Z,100035.57
2022-08-11T12:13:01.573Z,100060.63
2022-08-11T12:14:10.776Z,100047.05
2022-08-11T12:15:11.148Z,100057.81
2022-08-11T12:16:34.149Z,100063.20
2022-08-11T12:17:18.514Z,100056.84
2022-08-11T12:18:20.921Z,100062.22
2022-08-11T12:19:24.085Z,100062.10
2022-08-11T12:20:31.810Z,100065.54
2022-08-11T12:21:33.343Z,100064.41
2022-08-11T12:22:36.854Z,100073.23
2022-08-11T12:23:39.208Z,100068.70
2022-08-11T12:24:42.800Z,100074.08
2022-08-11T12:25:46.447Z,100072.30
2022-08-11T12:26:54.278Z,100078.53
2022-08-11T12:27:54.181Z,100059.41
2022-08-11T12:28:56.767Z,100059.41
2022-08-11T12:30:00.620Z,100079.59
2022-08-11T12:31:03.132Z,100074.08
2022-08-11T12:32:06.512Z,100073.86
2022-08-11T12:33:08.740Z,100070.20
2022-08-11T12:35:25.715Z,100071.80
2022-08-11T12:36:32.313Z,100078.16
2022-08-11T12:38:51.468Z,100081.84
2022-08-11T12:40:16.940Z,100081.59
2022-08-11T12:42:23.981Z,100086.73
2022-08-11T12:43:38.958Z,100081.22
2022-08-11T12:44:36.025Z,100079.28
2022-08-11T12:45:38.448Z,100083.78
2022-08-11T12:46:41.937Z,100088.20
2022-08-11T12:48:40.249Z,100083.66
2022-08-11T12:48:58.412Z,100087.10
2022-08-11T12:50:01.224Z,100091.52
2022-08-11T12:51:11.695Z,100085.25
2022-08-11T12:52:17.001Z,100090.64
2022-08-11T12:53:25.245Z,100090.64
2022-08-11T12:54:41.412Z,100093.33
2022-08-11T12:56:04.081Z,100085.25
2022-08-11T12:56:52.131Z,100091.61
2022-08-11T12:57:55.083Z,100090.05
2022-08-11T12:58:58.149Z,100092.83
2022-08-11T13:00:01.155Z,100094.55
2022-08-11T13:01:04.835Z,100101.66
2022-08-11T13:02:10.295Z,100091.98
2022-08-11T13:03:14.504Z,100092.95
2022-08-11T13:04:18.033Z,100095.64
2022-08-11T13:05:20.318Z,100078.66
2022-08-11T13:06:25.484Z,100095.05
2022-08-11T13:07:28.355Z,100095.05
2022-08-11T13:08:34.190Z,100087.10
2022-08-11T13:09:37.621Z,100086.98
2022-08-11T13:10:40.323Z,100087.70
2022-08-11T13:11:55.740Z,100085.75
2022-08-11T13:12:47.546Z,100085.63
2022-08-11T13:13:57.144Z,100082.06
2022-08-11T13:15:20.348Z,100079.50
2022-08-11T13:16:28.021Z,100085.88
2022-08-11T13:17:42.349Z,100083.41
2022-08-11T13:18:36.171Z,100087.95
2022-08-11T13:19:40.630Z,100077.19
2022-08-11T13:20:44.088Z,100080.63
2022-08-11T13:21:50.104Z,100077.31
2022-08-11T13:22:58.809Z,100073.86
2022-08-11T13:24:03.301Z,100073.77
2022-08-11T13:25:08.938Z,100070.08
2022-08-11T13:26:14.813Z,100068.98
2022-08-11T13:27:17.853Z,100072.55
2022-08-11T13:28:21.844Z,100068.86
2022-08-11T13:29:25.163Z,100067.05
2022-08-11T13:30:29.434Z,100059.69
2022-08-11T13:31:32.779Z,100073.02
2022-08-11T13:32:35.392Z,100058.72
2022-08-11T13:33:42.426Z,100056.03
2022-08-11T13:34:45.683Z,100056.88
2022-08-11T13:35:49.934Z,100062.12
2022-08-11T13:38:18.712Z,100058.33
2022-08-11T13:39:15.064Z,100059.22
2022-08-11T13:40:27.762Z,100060.19
2022-08-11T13:41:25.964Z,100056.63
2022-08-11T13:42:29.620Z,100063.85
2022-08-11T13:43:32.290Z,100051.23
2022-08-11T13:44:35.666Z,100053.09
2022-08-11T13:45:38.127Z,100054.69
2022-08-11T13:46:40.607Z,100063.73
2022-08-11T13:47:44.724Z,100056.41
2022-08-11T13:48:47.464Z,100061.41
2022-08-11T13:49:50.788Z,100063.00
2022-08-11T13:50:54.000Z,100061.77
2022-08-11T13:51:57.541Z,100059.67
2022-08-11T13:52:59.921Z,100052.34
2022-08-11T13:54:10.304Z,100050.24
2022-08-11T13:55:12.812Z,100066.17
2022-08-11T13:56:21.816Z,100051.70
2022-08-11T13:58:08.674Z,100046.94
2022-08-11T13:58:40.211Z,100051.22
2022-08-11T13:59:34.228Z,100049.38
2022-08-11T14:00:38.809Z,100050.13
2022-08-11T14:02:20.322Z,100047.89
2022-08-11T14:03:02.229Z,100048.77
2022-08-11T14:05:24.233Z,100049.47
2022-08-11T14:06:28.554Z,100052.78
2022-08-11T14:07:39.624Z,100045.42
2022-08-11T14:08:47.269Z,100050.70
2022-08-11T14:09:56.560Z,100044.09
2022-08-11T14:10:53.159Z,100042.98
2022-08-11T14:12:21.107Z,100047.14
2022-08-11T14:13:12.218Z,100037.23
2022-08-11T14:14:18.326Z,100036.23
2022-08-11T14:15:23.435Z,100040.77
2022-08-11T14:16:28.526Z,100041.62
2022-08-11T14:17:38.414Z,100045.19
2022-08-11T14:18:39.457Z,100038.92
2022-08-11T14:19:42.056Z,100045.19
2022-08-11T14:20:46.185Z,100047.00
2022-08-11T14:21:54.129Z,100045.31
2022-08-11T14:22:54.058Z,100044.31
2022-08-11T14:23:56.431Z,100040.77
2022-08-11T14:25:00.023Z,100039.19
2022-08-11T14:26:02.931Z,100040.16
2022-08-11T14:28:25.585Z,100042.01
2022-08-11T14:28:31.125Z,100043.86
2022-08-11T14:30:23.111Z,100037.98
2022-08-11T14:31:27.188Z,100046.55
2022-08-11T14:32:30.163Z,100047.53
2022-08-11T14:33:58.585Z,100041.30
2022-08-11T14:34:42.413Z,100046.69
2022-08-11T14:35:48.796Z,100039.45
2022-08-11T14:38:05.426Z,100038.08
2022-08-11T14:40:23.270Z,100032.21
2022-08-11T14:41:28.039Z,100036.76
2022-08-11T14:42:30.347Z,100035.17
2022-08-11T14:44:10.566Z,100035.17
2022-08-11T14:44:37.175Z,100037.86